Terminal Aerodrome Forecast
Issued by NWS

Home | Current Version | Previous Version | Graphics & Text | Print | Product List | Glossary On
Versions: 1 2 3 4 5 6 7 8 9 10 11 12 13 14 15 16 17
199
FTUS43 KBIS 141137
TAFDIK
TAF
KDIK 141137Z 1412/1512 28014KT P6SM OVC060
     FM141400 29016G24KT P6SM VCSH OVC050
     FM141600 32020G30KT 1 1/2SM -SN BLSN OVC025
     FM141900 32020G30KT 5SM BLSN BKN035
     FM142100 33019G28KT 6SM BLSN SCT200
     FM150100 32013KT P6SM SKC=

USA.gov is the U.S. government's official web portal to all federal, state and local government web resources and services.